sensor_id;sensor_type;location;lat;lon;timestamp;pressure;altitude;pressure_sealevel;temperature;humidity
15694;BME280;7947;48.834;9.132;2023-07-31T00:01:15;98224.97;;;17.15;79.14
15694;BME280;7947;48.834;9.132;2023-07-31T00:04:19;98231.19;;;17.15;78.93
15694;BME280;7947;48.834;9.132;2023-07-31T00:07:22;98223.06;;;17.07;78.75
15694;BME280;7947;48.834;9.132;2023-07-31T00:10:25;98230.72;;;17.05;78.58
15694;BME280;7947;48.834;9.132;2023-07-31T00:13:27;98224.97;;;17.06;78.32
15694;BME280;7947;48.834;9.132;2023-07-31T00:16:30;98226.69;;;17.02;78.62
15694;BME280;7947;48.834;9.132;2023-07-31T00:19:34;98224.94;;;16.98;78.51
15694;BME280;7947;48.834;9.132;2023-07-31T00:22:37;98230.19;;;16.94;77.95
15694;BME280;7947;48.834;9.132;2023-07-31T00:25:40;98228.09;;;16.91;78.74
15694;BME280;7947;48.834;9.132;2023-07-31T00:28:42;98218.69;;;16.89;78.45
15694;BME280;7947;48.834;9.132;2023-07-31T00:31:45;98226.66;;;16.85;78.48
15694;BME280;7947;48.834;9.132;2023-07-31T00:34:50;98230.31;;;16.89;78.12
15694;BME280;7947;48.834;9.132;2023-07-31T00:37:52;98230.63;;;16.88;78.31
15694;BME280;7947;48.834;9.132;2023-07-31T00:40:55;98238.94;;;16.91;77.73
15694;BME280;7947;48.834;9.132;2023-07-31T00:43:58;98232.88;;;16.94;77.40
15694;BME280;7947;48.834;9.132;2023-07-31T00:47:01;98238.13;;;16.91;77.56
15694;BME280;7947;48.834;9.132;2023-07-31T00:50:07;98237.00;;;16.83;77.61
15694;BME280;7947;48.834;9.132;2023-07-31T00:53:09;98227.09;;;16.79;78.36
15694;BME280;7947;48.834;9.132;2023-07-31T00:56:12;98225.19;;;16.79;78.69
15694;BME280;7947;48.834;9.132;2023-07-31T00:59:15;98232.97;;;16.72;79.08
15694;BME280;7947;48.834;9.132;2023-07-31T01:02:20;98227.34;;;16.69;79.32
15694;BME280;7947;48.834;9.132;2023-07-31T01:05:30;98228.09;;;16.61;79.45
15694;BME280;7947;48.834;9.132;2023-07-31T01:08:40;98229.53;;;16.58;79.46
15694;BME280;7947;48.834;9.132;2023-07-31T01:11:48;98221.16;;;16.46;79.53
15694;BME280;7947;48.834;9.132;2023-07-31T01:15:03;98215.25;;;16.44;80.06
15694;BME280;7947;48.834;9.132;2023-07-31T01:18:06;98213.19;;;16.41;80.23
15694;BME280;7947;48.834;9.132;2023-07-31T01:21:21;98220.59;;;16.36;80.04
15694;BME280;7947;48.834;9.132;2023-07-31T01:24:30;98219.84;;;16.35;80.02
15694;BME280;7947;48.834;9.132;2023-07-31T01:27:44;98208.03;;;16.31;80.08
15694;BME280;7947;48.834;9.132;2023-07-31T01:30:55;98209.91;;;16.31;80.58
15694;BME280;7947;48.834;9.132;2023-07-31T01:34:01;98202.44;;;16.27;80.31
15694;BME280;7947;48.834;9.132;2023-07-31T01:37:05;98198.44;;;16.25;80.30
15694;BME280;7947;48.834;9.132;2023-07-31T01:40:08;98193.50;;;16.27;81.05
15694;BME280;7947;48.834;9.132;2023-07-31T01:43:12;98190.31;;;16.25;80.96
15694;BME280;7947;48.834;9.132;2023-07-31T01:46:15;98189.81;;;16.23;80.97
15694;BME280;7947;48.834;9.132;2023-07-31T01:49:18;98189.00;;;16.22;81.11
15694;BME280;7947;48.834;9.132;2023-07-31T01:52:21;98180.78;;;16.27;81.13
15694;BME280;7947;48.834;9.132;2023-07-31T01:55:23;98177.75;;;16.29;81.38
15694;BME280;7947;48.834;9.132;2023-07-31T01:58:27;98180.28;;;16.25;81.42
15694;BME280;7947;48.834;9.132;2023-07-31T02:01:30;98177.28;;;16.27;81.38
15694;BME280;7947;48.834;9.132;2023-07-31T02:04:33;98172.94;;;16.26;81.32
15694;BME280;7947;48.834;9.132;2023-07-31T02:07:36;98174.75;;;16.31;81.67
15694;BME280;7947;48.834;9.132;2023-07-31T02:10:38;98166.13;;;16.28;81.25
15694;BME280;7947;48.834;9.132;2023-07-31T02:13:42;98171.38;;;16.25;81.50
15694;BME280;7947;48.834;9.132;2023-07-31T02:16:45;98164.06;;;16.25;81.08
15694;BME280;7947;48.834;9.132;2023-07-31T02:19:48;98155.94;;;16.25;81.40
15694;BME280;7947;48.834;9.132;2023-07-31T02:22:51;98152.84;;;16.18;81.35
15694;BME280;7947;48.834;9.132;2023-07-31T02:25:53;98138.97;;;16.11;81.32
15694;BME280;7947;48.834;9.132;2023-07-31T02:28:58;98146.19;;;16.16;81.70
15694;BME280;7947;48.834;9.132;2023-07-31T02:32:00;98147.28;;;16.15;81.92
15694;BME280;7947;48.834;9.132;2023-07-31T02:35:04;98138.34;;;16.14;81.89
15694;BME280;7947;48.834;9.132;2023-07-31T02:38:07;98132.44;;;16.12;81.58
15694;BME280;7947;48.834;9.132;2023-07-31T02:41:10;98136.28;;;16.11;81.51
15694;BME280;7947;48.834;9.132;2023-07-31T02:44:14;98139.63;;;16.08;81.69
15694;BME280;7947;48.834;9.132;2023-07-31T02:47:16;98136.22;;;16.03;81.82
15694;BME280;7947;48.834;9.132;2023-07-31T02:50:19;98132.53;;;15.99;82.00
15694;BME280;7947;48.834;9.132;2023-07-31T02:53:22;98120.44;;;15.96;82.05
15694;BME280;7947;48.834;9.132;2023-07-31T02:56:24;98123.16;;;15.96;82.28
15694;BME280;7947;48.834;9.132;2023-07-31T02:59:29;98121.41;;;16.00;82.17
15694;BME280;7947;48.834;9.132;2023-07-31T03:02:32;98122.03;;;15.97;82.08
15694;BME280;7947;48.834;9.132;2023-07-31T03:05:35;98127.13;;;15.99;82.22
15694;BME280;7947;48.834;9.132;2023-07-31T03:08:37;98133.59;;;15.89;82.31
15694;BME280;7947;48.834;9.132;2023-07-31T03:11:40;98128.50;;;15.88;82.27
15694;BME280;7947;48.834;9.132;2023-07-31T03:14:44;98134.06;;;15.91;82.28
15694;BME280;7947;48.834;9.132;2023-07-31T03:17:47;98130.88;;;15.89;82.56
15694;BME280;7947;48.834;9.132;2023-07-31T03:20:50;98129.66;;;15.95;81.88
15694;BME280;7947;48.834;9.132;2023-07-31T03:23:52;98118.81;;;15.95;82.29
15694;BME280;7947;48.834;9.132;2023-07-31T03:26:55;98128.56;;;15.96;82.16
15694;BME280;7947;48.834;9.132;2023-07-31T03:29:59;98130.63;;;15.99;82.68
15694;BME280;7947;48.834;9.132;2023-07-31T03:33:02;98133.72;;;16.06;82.54
15694;BME280;7947;48.834;9.132;2023-07-31T03:36:05;98133.72;;;16.06;82.50
15694;BME280;7947;48.834;9.132;2023-07-31T03:39:09;98136.41;;;16.06;82.88
15694;BME280;7947;48.834;9.132;2023-07-31T03:42:11;98136.91;;;16.08;82.47
15694;BME280;7947;48.834;9.132;2023-07-31T03:45:15;98128.59;;;16.05;82.34
15694;BME280;7947;48.834;9.132;2023-07-31T03:48:18;98136.22;;;16.03;82.41
15694;BME280;7947;48.834;9.132;2023-07-31T03:51:21;98131.44;;;16.00;82.86
15694;BME280;7947;48.834;9.132;2023-07-31T03:54:23;98137.16;;;15.98;82.82
15694;BME280;7947;48.834;9.132;2023-07-31T03:57:26;98139.22;;;16.01;82.71
15694;BME280;7947;48.834;9.132;2023-07-31T04:00:30;98136.22;;;16.03;82.40
15694;BME280;7947;48.834;9.132;2023-07-31T04:03:33;98135.44;;;16.02;82.42
15694;BME280;7947;48.834;9.132;2023-07-31T04:06:36;98139.28;;;16.10;82.79
15694;BME280;7947;48.834;9.132;2023-07-31T04:09:39;98132.28;;;16.09;82.63
15694;BME280;7947;48.834;9.132;2023-07-31T04:12:42;98126.88;;;16.09;82.36
15694;BME280;7947;48.834;9.132;2023-07-31T04:15:49;98135.97;;;16.13;82.45
15694;BME280;7947;48.834;9.132;2023-07-31T04:18:52;98126.44;;;16.15;83.25
15694;BME280;7947;48.834;9.132;2023-07-31T04:21:55;98132.50;;;16.21;83.63
15694;BME280;7947;48.834;9.132;2023-07-31T04:24:57;98125.03;;;16.26;83.06
15694;BME280;7947;48.834;9.132;2023-07-31T04:28:00;98121.28;;;16.36;79.75
15694;BME280;7947;48.834;9.132;2023-07-31T04:31:04;98123.38;;;16.48;79.53
15694;BME280;7947;48.834;9.132;2023-07-31T04:34:07;98121.25;;;16.58;80.85
15694;BME280;7947;48.834;9.132;2023-07-31T04:37:10;98119.34;;;16.67;81.34
15694;BME280;7947;48.834;9.132;2023-07-31T04:40:12;98121.94;;;16.72;81.59
15694;BME280;7947;48.834;9.132;2023-07-31T04:43:15;98115.56;;;16.77;81.63
15694;BME280;7947;48.834;9.132;2023-07-31T04:46:20;98115.44;;;16.82;79.43
15694;BME280;7947;48.834;9.132;2023-07-31T04:49:22;98116.56;;;16.89;77.61
15694;BME280;7947;48.834;9.132;2023-07-31T04:52:25;98116.72;;;17.01;76.86
15694;BME280;7947;48.834;9.132;2023-07-31T04:55:28;98117.88;;;17.09;75.45
15694;BME280;7947;48.834;9.132;2023-07-31T04:58:30;98113.09;;;17.14;75.96
15694;BME280;7947;48.834;9.132;2023-07-31T05:01:34;98118.50;;;17.23;75.30
15694;BME280;7947;48.834;9.132;2023-07-31T05:04:37;98106.88;;;17.31;74.41
15694;BME280;7947;48.834;9.132;2023-07-31T05:07:40;98107.84;;;17.35;73.85
15694;BME280;7947;48.834;9.132;2023-07-31T05:10:43;98110.84;;;17.42;73.51
15694;BME280;7947;48.834;9.132;2023-07-31T05:13:46;98104.00;;;17.45;73.45
15694;BME280;7947;48.834;9.132;2023-07-31T05:16:50;98095.09;;;17.53;72.80
15694;BME280;7947;48.834;9.132;2023-07-31T05:19:52;98095.25;;;17.56;72.35
15694;BME280;7947;48.834;9.132;2023-07-31T05:22:55;98097.50;;;17.63;70.75
15694;BME280;7947;48.834;9.132;2023-07-31T05:26:02;98106.72;;;17.70;71.29
15694;BME280;7947;48.834;9.132;2023-07-31T05:29:05;98111.97;;;17.75;70.72
15694;BME280;7947;48.834;9.132;2023-07-31T05:32:09;98114.38;;;17.85;69.17
15694;BME280;7947;48.834;9.132;2023-07-31T05:35:12;98112.28;;;17.91;68.95
15694;BME280;7947;48.834;9.132;2023-07-31T05:38:15;98105.22;;;17.98;68.12
15694;BME280;7947;48.834;9.132;2023-07-31T05:41:18;98107.47;;;18.05;68.65
15694;BME280;7947;48.834;9.132;2023-07-31T05:44:20;98103.94;;;18.04;68.14
15694;BME280;7947;48.834;9.132;2023-07-31T05:47:25;98097.56;;;18.09;68.96
15694;BME280;7947;48.834;9.132;2023-07-31T05:50:27;98101.50;;;18.20;68.02
15694;BME280;7947;48.834;9.132;2023-07-31T05:53:30;98094.44;;;18.28;67.49
15694;BME280;7947;48.834;9.132;2023-07-31T05:56:33;98091.88;;;18.31;66.85
15694;BME280;7947;48.834;9.132;2023-07-31T05:59:36;98100.97;;;18.35;67.41
15694;BME280;7947;48.834;9.132;2023-07-31T06:02:40;98097.16;;;18.36;66.83
15694;BME280;7947;48.834;9.132;2023-07-31T06:05:43;98092.31;;;18.42;66.53
15694;BME280;7947;48.834;9.132;2023-07-31T06:08:46;98096.00;;;18.46;66.89
15694;BME280;7947;48.834;9.132;2023-07-31T06:11:49;98113.72;;;18.52;66.65
15694;BME280;7947;48.834;9.132;2023-07-31T06:14:51;98102.03;;;18.60;65.67
15694;BME280;7947;48.834;9.132;2023-07-31T06:17:55;98092.84;;;18.73;65.16
15694;BME280;7947;48.834;9.132;2023-07-31T06:21:00;98097.38;;;18.89;64.05
15694;BME280;7947;48.834;9.132;2023-07-31T06:24:03;98094.47;;;18.95;64.73
15694;BME280;7947;48.834;9.132;2023-07-31T06:27:06;98101.13;;;19.06;64.43
15694;BME280;7947;48.834;9.132;2023-07-31T06:30:10;98096.34;;;19.23;63.87
15694;BME280;7947;48.834;9.132;2023-07-31T06:33:14;98098.84;;;19.37;63.04
15694;BME280;7947;48.834;9.132;2023-07-31T06:36:17;98086.06;;;19.49;62.47
15694;BME280;7947;48.834;9.132;2023-07-31T06:39:20;98098.22;;;19.52;61.76
15694;BME280;7947;48.834;9.132;2023-07-31T06:42:22;98101.63;;;19.49;61.38
15694;BME280;7947;48.834;9.132;2023-07-31T06:45:25;98108.84;;;19.45;62.75
15694;BME280;7947;48.834;9.132;2023-07-31T06:48:29;98110.38;;;19.54;62.34
15694;BME280;7947;48.834;9.132;2023-07-31T06:51:32;98104.56;;;19.76;61.91
15694;BME280;7947;48.834;9.132;2023-07-31T06:54:35;98109.50;;;19.95;61.69
15694;BME280;7947;48.834;9.132;2023-07-31T06:57:38;98110.91;;;20.01;60.94
15694;BME280;7947;48.834;9.132;2023-07-31T07:00:40;98114.19;;;20.07;60.37
15694;BME280;7947;48.834;9.132;2023-07-31T07:03:45;98106.59;;;20.12;60.59
15694;BME280;7947;48.834;9.132;2023-07-31T07:06:47;98108.81;;;20.19;59.16
15694;BME280;7947;48.834;9.132;2023-07-31T07:09:50;98101.88;;;20.21;59.96
15694;BME280;7947;48.834;9.132;2023-07-31T07:12:54;98106.56;;;20.45;61.19
15694;BME280;7947;48.834;9.132;2023-07-31T07:15:57;98109.75;;;20.83;57.00
15694;BME280;7947;48.834;9.132;2023-07-31T07:19:01;98096.59;;;21.09;56.31
15694;BME280;7947;48.834;9.132;2023-07-31T07:22:06;98089.06;;;21.18;56.09
15694;BME280;7947;48.834;9.132;2023-07-31T07:25:08;98087.16;;;21.07;55.61
15694;BME280;7947;48.834;9.132;2023-07-31T07:28:11;98086.13;;;20.99;56.16
15694;BME280;7947;48.834;9.132;2023-07-31T07:31:14;98083.06;;;20.89;56.49
15694;BME280;7947;48.834;9.132;2023-07-31T07:34:18;98087.75;;;20.76;56.34
15694;BME280;7947;48.834;9.132;2023-07-31T07:37:21;98086.81;;;20.72;56.85
15694;BME280;7947;48.834;9.132;2023-07-31T07:40:24;98072.75;;;20.70;57.28
15694;BME280;7947;48.834;9.132;2023-07-31T07:43:27;98079.22;;;20.78;56.77
15694;BME280;7947;48.834;9.132;2023-07-31T07:46:29;98072.41;;;20.84;55.93
15694;BME280;7947;48.834;9.132;2023-07-31T07:49:34;98080.31;;;20.89;56.15
15694;BME280;7947;48.834;9.132;2023-07-31T07:52:37;98070.47;;;20.96;56.75
15694;BME280;7947;48.834;9.132;2023-07-31T07:55:40;98067.59;;;21.17;56.70
15694;BME280;7947;48.834;9.132;2023-07-31T07:58:43;98076.06;;;21.39;56.13
15694;BME280;7947;48.834;9.132;2023-07-31T08:01:45;98077.09;;;21.63;53.79
15694;BME280;7947;48.834;9.132;2023-07-31T08:04:50;98075.44;;;21.86;54.33
15694;BME280;7947;48.834;9.132;2023-07-31T08:07:53;98072.56;;;21.94;52.82
15694;BME280;7947;48.834;9.132;2023-07-31T08:10:56;98074.56;;;21.97;52.89
15694;BME280;7947;48.834;9.132;2023-07-31T08:13:58;98064.75;;;22.08;51.94
15694;BME280;7947;48.834;9.132;2023-07-31T08:17:01;98064.81;;;22.12;51.93
15694;BME280;7947;48.834;9.132;2023-07-31T08:20:07;98050.81;;;22.29;53.08
15694;BME280;7947;48.834;9.132;2023-07-31T08:23:10;98057.59;;;22.51;52.17
15694;BME280;7947;48.834;9.132;2023-07-31T08:26:17;98054.53;;;22.68;50.94
15694;BME280;7947;48.834;9.132;2023-07-31T08:29:20;98063.97;;;22.70;51.66
15694;BME280;7947;48.834;9.132;2023-07-31T08:32:23;98057.31;;;22.56;50.80
15694;BME280;7947;48.834;9.132;2023-07-31T08:35:27;98060.34;;;22.66;51.10
15694;BME280;7947;48.834;9.132;2023-07-31T08:38:30;98048.53;;;22.47;50.86
15694;BME280;7947;48.834;9.132;2023-07-31T08:41:37;98048.06;;;22.44;51.19
15694;BME280;7947;48.834;9.132;2023-07-31T08:44:40;98046.59;;;22.47;51.65
15694;BME280;7947;48.834;9.132;2023-07-31T08:47:45;98045.06;;;22.50;51.17
15694;BME280;7947;48.834;9.132;2023-07-31T08:50:51;98036.88;;;22.34;51.24
15694;BME280;7947;48.834;9.132;2023-07-31T08:53:54;98047.81;;;22.34;51.83
15694;BME280;7947;48.834;9.132;2023-07-31T08:56:57;98035.03;;;22.38;51.66
15694;BME280;7947;48.834;9.132;2023-07-31T09:00:02;98046.03;;;22.41;51.30
15694;BME280;7947;48.834;9.132;2023-07-31T09:03:08;98042.25;;;22.30;50.51
15694;BME280;7947;48.834;9.132;2023-07-31T09:06:13;98028.06;;;22.25;51.59
15694;BME280;7947;48.834;9.132;2023-07-31T09:09:18;98030.81;;;22.09;53.20
15694;BME280;7947;48.834;9.132;2023-07-31T09:12:22;98032.13;;;22.00;52.33
15694;BME280;7947;48.834;9.132;2023-07-31T09:15:25;98027.53;;;21.88;53.44
15694;BME280;7947;48.834;9.132;2023-07-31T09:18:53;98033.47;;;21.78;54.30
15694;BME280;7947;48.834;9.132;2023-07-31T09:21:59;98031.34;;;21.72;54.62
15694;BME280;7947;48.834;9.132;2023-07-31T09:25:14;98026.88;;;21.79;54.33
15694;BME280;7947;48.834;9.132;2023-07-31T09:28:17;98020.38;;;21.84;54.85
15694;BME280;7947;48.834;9.132;2023-07-31T09:31:31;98018.84;;;21.71;53.96
15694;BME280;7947;48.834;9.132;2023-07-31T09:34:38;98011.31;;;21.52;55.06
15694;BME280;7947;48.834;9.132;2023-07-31T09:37:42;98006.03;;;21.59;56.07
15694;BME280;7947;48.834;9.132;2023-07-31T09:40:46;98012.47;;;21.67;54.36
15694;BME280;7947;48.834;9.132;2023-07-31T09:43:53;97998.69;;;21.75;53.49
15694;BME280;7947;48.834;9.132;2023-07-31T09:46:56;97995.72;;;21.80;53.40
15694;BME280;7947;48.834;9.132;2023-07-31T09:49:59;97984.56;;;22.01;53.11
15694;BME280;7947;48.834;9.132;2023-07-31T09:53:03;97975.56;;;22.31;53.83
15694;BME280;7947;48.834;9.132;2023-07-31T09:56:06;97965.34;;;22.63;51.62
15694;BME280;7947;48.834;9.132;2023-07-31T09:59:11;97977.34;;;22.74;49.98
15694;BME280;7947;48.834;9.132;2023-07-31T10:02:15;97969.69;;;22.64;50.04
15694;BME280;7947;48.834;9.132;2023-07-31T10:05:22;97974.06;;;22.53;50.73
15694;BME280;7947;48.834;9.132;2023-07-31T10:08:29;97972.03;;;22.81;52.96
15694;BME280;7947;48.834;9.132;2023-07-31T10:11:36;97962.81;;;23.08;50.88
15694;BME280;7947;48.834;9.132;2023-07-31T10:14:41;97952.03;;;23.35;51.35
15694;BME280;7947;48.834;9.132;2023-07-31T10:17:46;97954.53;;;23.43;48.16
15694;BME280;7947;48.834;9.132;2023-07-31T10:20:50;97953.47;;;23.28;48.63
15694;BME280;7947;48.834;9.132;2023-07-31T10:23:55;97947.41;;;23.19;48.25
15694;BME280;7947;48.834;9.132;2023-07-31T10:27:00;97946.47;;;23.12;48.66
15694;BME280;7947;48.834;9.132;2023-07-31T10:30:05;97941.06;;;22.96;50.13
15694;BME280;7947;48.834;9.132;2023-07-31T10:33:10;97936.78;;;22.95;51.16
15694;BME280;7947;48.834;9.132;2023-07-31T10:36:14;97917.97;;;23.32;49.65
15694;BME280;7947;48.834;9.132;2023-07-31T10:39:35;97932.53;;;23.59;48.99
15694;BME280;7947;48.834;9.132;2023-07-31T10:42:46;97932.16;;;23.60;47.93
15694;BME280;7947;48.834;9.132;2023-07-31T10:45:50;97937.22;;;23.58;48.34
15694;BME280;7947;48.834;9.132;2023-07-31T10:48:58;97936.19;;;23.44;48.26
15694;BME280;7947;48.834;9.132;2023-07-31T10:52:03;97927.47;;;23.38;48.61
15694;BME280;7947;48.834;9.132;2023-07-31T10:55:26;97931.41;;;23.21;48.02
15694;BME280;7947;48.834;9.132;2023-07-31T10:58:29;97922.94;;;23.26;47.96
15694;BME280;7947;48.834;9.132;2023-07-31T11:01:51;97913.16;;;23.67;49.40
15694;BME280;7947;48.834;9.132;2023-07-31T11:05:07;97915.53;;;23.95;46.77
15694;BME280;7947;48.834;9.132;2023-07-31T11:08:12;97910.72;;;24.07;48.02
15694;BME280;7947;48.834;9.132;2023-07-31T11:11:17;97905.41;;;24.48;45.77
15694;BME280;7947;48.834;9.132;2023-07-31T11:14:20;97912.41;;;24.71;45.50
15694;BME280;7947;48.834;9.132;2023-07-31T11:17:24;97899.72;;;24.89;47.01
15694;BME280;7947;48.834;9.132;2023-07-31T11:20:29;97900.13;;;24.91;45.34
15694;BME280;7947;48.834;9.132;2023-07-31T11:23:32;97908.66;;;24.83;44.42
15694;BME280;7947;48.834;9.132;2023-07-31T11:26:36;97906.50;;;24.69;45.74
15694;BME280;7947;48.834;9.132;2023-07-31T11:29:39;97905.41;;;24.48;45.82
15694;BME280;7947;48.834;9.132;2023-07-31T11:32:42;97907.06;;;24.26;45.75
15694;BME280;7947;48.834;9.132;2023-07-31T11:35:46;97897.78;;;24.08;47.83
15694;BME280;7947;48.834;9.132;2023-07-31T11:38:50;97896.69;;;23.90;48.76
15694;BME280;7947;48.834;9.132;2023-07-31T11:41:59;97894.09;;;23.74;48.18
15694;BME280;7947;48.834;9.132;2023-07-31T11:45:03;97900.00;;;23.54;48.32
15694;BME280;7947;48.834;9.132;2023-07-31T11:48:06;97893.66;;;23.50;47.84
15694;BME280;7947;48.834;9.132;2023-07-31T11:51:10;97894.22;;;23.36;48.04
15694;BME280;7947;48.834;9.132;2023-07-31T11:54:15;97891.09;;;23.38;48.63
15694;BME280;7947;48.834;9.132;2023-07-31T11:57:19;97879.06;;;23.42;48.83
15694;BME280;7947;48.834;9.132;2023-07-31T12:00:23;97871.63;;;23.43;48.87
15694;BME280;7947;48.834;9.132;2023-07-31T12:03:27;97868.78;;;23.36;49.21
15694;BME280;7947;48.834;9.132;2023-07-31T12:06:33;97872.50;;;23.27;48.43
15694;BME280;7947;48.834;9.132;2023-07-31T12:09:36;97871.16;;;23.18;50.15
15694;BME280;7947;48.834;9.132;2023-07-31T12:12:41;97854.75;;;23.18;50.77
15694;BME280;7947;48.834;9.132;2023-07-31T12:15:44;97853.50;;;23.15;50.05
15694;BME280;7947;48.834;9.132;2023-07-31T12:18:49;97860.16;;;23.14;49.60
15694;BME280;7947;48.834;9.132;2023-07-31T12:21:52;97863.69;;;23.15;49.87
15694;BME280;7947;48.834;9.132;2023-07-31T12:24:55;97858.72;;;23.20;50.97
15694;BME280;7947;48.834;9.132;2023-07-31T12:28:04;97851.00;;;23.49;49.88
15694;BME280;7947;48.834;9.132;2023-07-31T12:31:09;97835.34;;;23.46;48.66
15694;BME280;7947;48.834;9.132;2023-07-31T12:34:16;97842.22;;;23.36;49.02
15694;BME280;7947;48.834;9.132;2023-07-31T12:37:20;97839.28;;;23.29;51.42
15694;BME280;7947;48.834;9.132;2023-07-31T12:40:23;97826.34;;;23.26;50.50
15694;BME280;7947;48.834;9.132;2023-07-31T12:43:35;97835.78;;;23.28;50.85
15694;BME280;7947;48.834;9.132;2023-07-31T12:46:38;97833.75;;;23.25;50.80
15694;BME280;7947;48.834;9.132;2023-07-31T12:49:41;97823.25;;;23.27;48.71
15694;BME280;7947;48.834;9.132;2023-07-31T12:52:44;97822.44;;;23.27;48.55
15694;BME280;7947;48.834;9.132;2023-07-31T12:55:47;97806.47;;;23.29;48.22
15694;BME280;7947;48.834;9.132;2023-07-31T12:58:51;97813.38;;;23.23;49.16
15694;BME280;7947;48.834;9.132;2023-07-31T13:01:54;97814.34;;;23.11;48.99
15694;BME280;7947;48.834;9.132;2023-07-31T13:04:56;97803.84;;;23.13;48.74
15694;BME280;7947;48.834;9.132;2023-07-31T13:07:59;97798.25;;;23.06;49.25
15694;BME280;7947;48.834;9.132;2023-07-31T13:11:02;97803.72;;;23.06;49.41
15694;BME280;7947;48.834;9.132;2023-07-31T13:14:06;97804.84;;;23.05;48.77
15694;BME280;7947;48.834;9.132;2023-07-31T13:17:09;97800.13;;;23.02;49.96
15694;BME280;7947;48.834;9.132;2023-07-31T13:20:12;97799.00;;;23.03;50.16
15694;BME280;7947;48.834;9.132;2023-07-31T13:23:15;97788.69;;;22.97;51.33
15694;BME280;7947;48.834;9.132;2023-07-31T13:26:17;97791.00;;;22.95;50.75
15694;BME280;7947;48.834;9.132;2023-07-31T13:29:22;97778.63;;;23.01;49.21
15694;BME280;7947;48.834;9.132;2023-07-31T13:32:25;97768.41;;;23.20;48.74
15694;BME280;7947;48.834;9.132;2023-07-31T13:35:28;97770.31;;;23.39;50.17
15694;BME280;7947;48.834;9.132;2023-07-31T13:38:33;97770.47;;;23.50;47.99
15694;BME280;7947;48.834;9.132;2023-07-31T13:41:35;97770.91;;;23.52;49.15
15694;BME280;7947;48.834;9.132;2023-07-31T13:44:40;97762.78;;;23.59;48.81
15694;BME280;7947;48.834;9.132;2023-07-31T13:47:43;97765.09;;;23.57;48.30
15694;BME280;7947;48.834;9.132;2023-07-31T13:50:46;97759.63;;;23.57;48.51
15694;BME280;7947;48.834;9.132;2023-07-31T13:53:49;97757.75;;;23.61;48.99
15694;BME280;7947;48.834;9.132;2023-07-31T13:56:52;97751.94;;;23.66;50.26
15694;BME280;7947;48.834;9.132;2023-07-31T13:59:56;97754.66;;;23.66;49.83
15694;BME280;7947;48.834;9.132;2023-07-31T14:02:59;97751.63;;;23.71;50.64
15694;BME280;7947;48.834;9.132;2023-07-31T14:06:02;97744.41;;;23.85;49.19
15694;BME280;7947;48.834;9.132;2023-07-31T14:09:05;97742.06;;;23.87;49.64
15694;BME280;7947;48.834;9.132;2023-07-31T14:12:08;97738.06;;;23.81;50.04
15694;BME280;7947;48.834;9.132;2023-07-31T14:15:12;97734.75;;;23.95;50.05
15694;BME280;7947;48.834;9.132;2023-07-31T14:18:15;97736.38;;;23.99;50.10
15694;BME280;7947;48.834;9.132;2023-07-31T14:21:18;97732.00;;;24.21;48.89
15694;BME280;7947;48.834;9.132;2023-07-31T14:24:21;97738.41;;;24.36;47.60
15694;BME280;7947;48.834;9.132;2023-07-31T14:27:24;97733.44;;;24.45;48.58
15694;BME280;7947;48.834;9.132;2023-07-31T14:30:28;97732.72;;;24.51;49.41
15694;BME280;7947;48.834;9.132;2023-07-31T14:33:31;97727.25;;;24.51;48.62
15694;BME280;7947;48.834;9.132;2023-07-31T14:36:34;97725.69;;;24.50;47.40
15694;BME280;7947;48.834;9.132;2023-07-31T14:39:37;97714.16;;;24.38;48.99
15694;BME280;7947;48.834;9.132;2023-07-31T14:42:41;97706.66;;;24.31;50.05
15694;BME280;7947;48.834;9.132;2023-07-31T14:45:46;97704.25;;;24.26;49.49
15694;BME280;7947;48.834;9.132;2023-07-31T14:48:48;97711.25;;;24.24;50.45
15694;BME280;7947;48.834;9.132;2023-07-31T14:51:51;97714.34;;;24.18;49.52
15694;BME280;7947;48.834;9.132;2023-07-31T14:54:54;97721.34;;;24.16;51.18
15694;BME280;7947;48.834;9.132;2023-07-31T14:57:57;97706.06;;;24.15;49.49
15694;BME280;7947;48.834;9.132;2023-07-31T15:01:01;97712.28;;;24.12;50.17
15694;BME280;7947;48.834;9.132;2023-07-31T15:04:04;97711.56;;;24.15;49.65
15694;BME280;7947;48.834;9.132;2023-07-31T15:07:07;97714.47;;;24.29;49.25
15694;BME280;7947;48.834;9.132;2023-07-31T15:10:10;97702.28;;;24.27;49.83
15694;BME280;7947;48.834;9.132;2023-07-31T15:13:13;97690.56;;;24.30;48.73
15694;BME280;7947;48.834;9.132;2023-07-31T15:16:17;97695.59;;;24.24;49.50
15694;BME280;7947;48.834;9.132;2023-07-31T15:19:21;97686.97;;;24.22;49.26
15694;BME280;7947;48.834;9.132;2023-07-31T15:22:24;97685.00;;;24.19;49.01
15694;BME280;7947;48.834;9.132;2023-07-31T15:25:28;97681.88;;;24.21;48.70
15694;BME280;7947;48.834;9.132;2023-07-31T15:28:31;97670.53;;;24.22;47.66
15694;BME280;7947;48.834;9.132;2023-07-31T15:31:38;97675.47;;;24.43;47.25
15694;BME280;7947;48.834;9.132;2023-07-31T15:34:41;97664.19;;;24.51;46.66
15694;BME280;7947;48.834;9.132;2023-07-31T15:37:44;97661.41;;;24.48;48.14
15694;BME280;7947;48.834;9.132;2023-07-31T15:40:48;97656.34;;;24.50;46.25
15694;BME280;7947;48.834;9.132;2023-07-31T15:43:50;97647.28;;;24.46;45.52
15694;BME280;7947;48.834;9.132;2023-07-31T15:46:55;97637.84;;;24.43;46.58
15694;BME280;7947;48.834;9.132;2023-07-31T15:49:58;97622.59;;;24.46;46.57
15694;BME280;7947;48.834;9.132;2023-07-31T15:53:00;97617.09;;;24.42;47.19
15694;BME280;7947;48.834;9.132;2023-07-31T15:56:03;97622.47;;;24.32;47.37
15694;BME280;7947;48.834;9.132;2023-07-31T15:59:06;97600.50;;;24.28;47.09
15694;BME280;7947;48.834;9.132;2023-07-31T16:02:10;97609.91;;;24.27;48.25
15694;BME280;7947;48.834;9.132;2023-07-31T16:05:13;97609.53;;;24.29;47.55
15694;BME280;7947;48.834;9.132;2023-07-31T16:08:16;97616.97;;;24.32;47.96
15694;BME280;7947;48.834;9.132;2023-07-31T16:11:19;97631.59;;;24.43;48.50
15694;BME280;7947;48.834;9.132;2023-07-31T16:14:22;97631.91;;;24.38;47.68
15694;BME280;7947;48.834;9.132;2023-07-31T16:17:26;97627.88;;;24.25;48.52
15694;BME280;7947;48.834;9.132;2023-07-31T16:20:29;97625.44;;;24.16;48.45
15694;BME280;7947;48.834;9.132;2023-07-31T16:23:32;97618.72;;;24.10;48.10
15694;BME280;7947;48.834;9.132;2023-07-31T16:26:35;97610.34;;;23.99;48.16